createdAt,value
2018-11-10T00:00:22.314Z,9.10
2018-11-10T00:02:54.858Z,9.10
2018-11-10T00:05:27.060Z,9.20
2018-11-10T00:07:59.225Z,9.10
2018-11-10T00:10:31.497Z,9.10
2018-11-10T00:13:04.232Z,9.10
2018-11-10T00:15:36.226Z,9.10
2018-11-10T00:18:08.825Z,9.10
2018-11-10T00:20:41.027Z,9.20
2018-11-10T00:23:13.405Z,9.20
2018-11-10T00:25:45.299Z,9.20
2018-11-10T00:28:17.468Z,9.20
2018-11-10T00:30:49.487Z,9.10
2018-11-10T00:33:21.593Z,9.20
2018-11-10T00:35:53.647Z,9.20
2018-11-10T00:38:25.737Z,9.20
2018-11-10T00:40:57.898Z,9.20
2018-11-10T00:43:29.861Z,9.20
2018-11-10T00:46:02.076Z,9.20
2018-11-10T00:48:34.275Z,9.10
2018-11-10T00:51:06.414Z,9.20
2018-11-10T00:53:38.517Z,9.20
2018-11-10T00:56:10.831Z,9.20
2018-11-10T00:58:43.064Z,9.20
2018-11-10T01:01:15.135Z,9.20
2018-11-10T01:03:47.049Z,9.20
2018-11-10T01:06:19.270Z,9.20
2018-11-10T01:08:51.222Z,9.20
2018-11-10T01:11:23.259Z,9.10
2018-11-10T01:13:55.075Z,9.20
2018-11-10T01:16:27.305Z,9.20
2018-11-10T01:18:59.587Z,9.20
2018-11-10T01:21:31.532Z,9.20
2018-11-10T01:24:03.357Z,9.20
2018-11-10T01:26:35.373Z,9.20
2018-11-10T01:29:08.193Z,9.20
2018-11-10T01:31:40.276Z,9.10
2018-11-10T01:34:12.365Z,9.10
2018-11-10T01:36:44.725Z,9.20
2018-11-10T01:39:16.440Z,9.10
2018-11-10T01:41:48.815Z,9.20
2018-11-10T01:44:20.908Z,9.20
2018-11-10T01:46:53.035Z,9.20
2018-11-10T01:49:25.124Z,9.20
2018-11-10T01:51:57.126Z,9.20
2018-11-10T01:54:28.854Z,9.20
2018-11-10T01:57:01.800Z,9.10
2018-11-10T01:59:33.839Z,9.10
2018-11-10T02:02:06.149Z,9.20
2018-11-10T02:04:38.004Z,9.20
2018-11-10T02:07:10.282Z,9.20
2018-11-10T02:09:42.242Z,9.20
2018-11-10T02:12:14.289Z,9.10
2018-11-10T02:14:46.241Z,9.20
2018-11-10T02:17:18.446Z,9.20
2018-11-10T02:19:50.832Z,9.10
2018-11-10T02:22:22.910Z,9.20
2018-11-10T02:24:54.878Z,9.10
2018-11-10T02:27:26.900Z,9.20
2018-11-10T02:29:59.034Z,9.20
2018-11-10T02:32:30.980Z,9.20
2018-11-10T02:35:02.829Z,9.20
2018-11-10T02:37:34.685Z,9.10
2018-11-10T02:40:07.040Z,9.20
2018-11-10T02:42:39.137Z,9.10
2018-11-10T02:45:12.590Z,9.10
2018-11-10T02:47:45.467Z,9.20
2018-11-10T02:50:17.694Z,9.20
2018-11-10T02:52:49.548Z,9.20
2018-11-10T02:55:21.677Z,9.20
2018-11-10T02:57:53.643Z,9.10
2018-11-10T03:00:25.542Z,9.20
2018-11-10T03:02:57.558Z,9.20
2018-11-10T03:05:29.960Z,9.10
2018-11-10T03:08:02.930Z,9.20
2018-11-10T03:10:35.215Z,9.20
2018-11-10T03:13:07.678Z,9.20
2018-11-10T03:15:39.318Z,9.20
2018-11-10T03:18:10.969Z,9.10
2018-11-10T03:20:42.856Z,9.10
2018-11-10T03:23:14.813Z,9.10
2018-11-10T03:25:46.656Z,9.20
2018-11-10T03:28:18.724Z,9.10
2018-11-10T03:30:50.564Z,9.20
2018-11-10T03:33:22.541Z,9.20
2018-11-10T03:35:54.733Z,9.20
2018-11-10T03:38:27.726Z,9.10
2018-11-10T03:41:00.734Z,9.20
2018-11-10T03:43:32.944Z,9.20
2018-11-10T03:46:04.421Z,9.20
2018-11-10T03:48:36.283Z,9.20
2018-11-10T03:51:08.395Z,9.10
2018-11-10T03:53:40.710Z,9.20
2018-11-10T03:56:12.984Z,9.20
2018-11-10T03:58:44.796Z,9.10
2018-11-10T04:01:17.168Z,9.20
2018-11-10T04:03:49.207Z,9.20
2018-11-10T04:06:21.353Z,9.20
2018-11-10T04:08:53.690Z,9.20
2018-11-10T04:11:26.005Z,9.20
2018-11-10T04:13:57.857Z,9.10
2018-11-10T04:16:29.876Z,9.20
2018-11-10T04:19:02.056Z,9.10
2018-11-10T04:21:34.385Z,9.10
2018-11-10T04:24:06.453Z,9.10
2018-11-10T04:26:38.381Z,9.20
2018-11-10T04:29:10.208Z,9.20
2018-11-10T04:31:42.213Z,9.10
2018-11-10T04:34:14.257Z,9.10
2018-11-10T04:36:47.061Z,9.10
2018-11-10T04:39:19.313Z,9.20
2018-11-10T04:41:51.272Z,9.10
2018-11-10T04:44:23.378Z,9.20
2018-11-10T04:46:55.270Z,9.10
2018-11-10T04:49:27.095Z,9.10
2018-11-10T04:51:59.356Z,9.20
2018-11-10T04:54:31.328Z,9.20
2018-11-10T04:57:03.277Z,9.20
2018-11-10T04:59:35.225Z,9.20
2018-11-10T05:02:07.221Z,9.10
2018-11-10T05:04:39.244Z,9.10
2018-11-10T05:07:11.030Z,9.10
2018-11-10T05:09:42.934Z,9.20
2018-11-10T05:12:15.577Z,9.10
2018-11-10T05:14:47.709Z,9.20
2018-11-10T05:17:19.683Z,9.10
2018-11-10T05:19:51.585Z,9.20
2018-11-10T05:22:23.525Z,9.20
2018-11-10T05:24:55.573Z,9.20
2018-11-10T05:27:27.301Z,9.20
2018-11-10T05:29:59.581Z,9.20
2018-11-10T05:32:31.576Z,9.20
2018-11-10T05:35:03.397Z,9.10
2018-11-10T05:37:35.163Z,9.10
2018-11-10T05:40:07.687Z,9.10
2018-11-10T05:42:39.713Z,9.10
2018-11-10T05:45:12.741Z,9.10
2018-11-10T05:47:44.607Z,9.10
2018-11-10T05:50:16.466Z,9.10
2018-11-10T05:52:48.529Z,9.10
2018-11-10T05:55:20.454Z,9.10
2018-11-10T05:57:52.541Z,9.10
2018-11-10T06:00:24.670Z,9.10
2018-11-10T06:02:57.603Z,9.10
2018-11-10T06:05:29.600Z,9.10
2018-11-10T06:08:01.388Z,9.10
2018-11-10T06:10:33.446Z,9.10
2018-11-10T06:13:05.476Z,9.10
2018-11-10T06:15:37.450Z,9.10
2018-11-10T06:18:09.553Z,9.10
2018-11-10T06:20:41.585Z,9.00
2018-11-10T06:23:13.422Z,9.00
2018-11-10T06:25:45.529Z,9.10
2018-11-10T06:28:17.614Z,9.10
2018-11-10T06:30:49.403Z,9.10
2018-11-10T06:33:21.475Z,9.10
2018-11-10T06:35:53.412Z,9.10
2018-11-10T06:38:25.441Z,9.00
2018-11-10T06:40:58.394Z,9.10
2018-11-10T06:43:30.402Z,9.10
2018-11-10T06:46:02.318Z,9.00
2018-11-10T06:48:34.318Z,9.10
2018-11-10T06:51:06.635Z,9.00
2018-11-10T06:53:53.660Z,9.10
2018-11-10T06:56:43.881Z,9.10
2018-11-10T06:59:18.588Z,9.10
2018-11-10T07:01:50.739Z,9.00
2018-11-10T07:04:23.356Z,9.10
2018-11-10T07:06:55.814Z,9.10
2018-11-10T07:09:29.068Z,9.00
2018-11-10T07:12:01.343Z,9.00
2018-11-10T07:14:33.129Z,9.00
2018-11-10T07:17:08.797Z,9.10
2018-11-10T07:19:42.707Z,9.10
2018-11-10T07:22:15.035Z,9.10
2018-11-10T07:24:47.280Z,9.10
2018-11-10T07:27:19.235Z,9.00
2018-11-10T07:29:51.410Z,9.10
2018-11-10T07:32:23.468Z,9.10
2018-11-10T07:34:55.957Z,9.10
2018-11-10T07:37:28.881Z,9.00
2018-11-10T07:40:02.671Z,9.00
2018-11-10T07:42:34.645Z,9.10
2018-11-10T07:45:07.409Z,9.10
2018-11-10T07:47:39.462Z,9.10
2018-11-10T07:50:12.183Z,9.10
2018-11-10T07:52:44.545Z,9.10
2018-11-10T07:55:17.070Z,9.10
2018-11-10T07:57:49.211Z,9.10
2018-11-10T08:00:21.279Z,9.10
2018-11-10T08:02:53.320Z,9.10
2018-11-10T08:05:25.215Z,9.10
2018-11-10T08:07:57.372Z,9.10
2018-11-10T08:10:29.633Z,9.10
2018-11-10T08:13:01.902Z,9.20
2018-11-10T08:15:33.864Z,9.10
2018-11-10T08:18:06.239Z,9.10
2018-11-10T08:20:38.244Z,9.20
2018-11-10T08:23:10.258Z,9.20
2018-11-10T08:25:42.408Z,9.20
2018-11-10T08:28:14.334Z,9.20
2018-11-10T08:30:46.275Z,9.20
2018-11-10T08:33:18.020Z,9.20
2018-11-10T08:35:50.147Z,9.20
2018-11-10T08:38:22.891Z,9.20
2018-11-10T08:40:55.284Z,9.20
2018-11-10T08:43:29.682Z,9.20
2018-11-10T08:46:02.021Z,9.20
2018-11-10T08:48:37.402Z,9.20
2018-11-10T08:51:10.419Z,9.20
2018-11-10T08:53:43.867Z,9.20
2018-11-10T08:56:16.090Z,9.20
2018-11-10T08:58:47.989Z,9.20
2018-11-10T09:01:25.640Z,9.20
2018-11-10T09:03:59.606Z,9.20
2018-11-10T09:06:32.693Z,9.20
2018-11-10T09:09:05.241Z,9.20
2018-11-10T09:11:37.661Z,9.20
2018-11-10T09:14:10.369Z,9.30
2018-11-10T09:16:42.656Z,9.20
2018-11-10T09:19:15.051Z,9.30
2018-11-10T09:21:47.828Z,9.30
2018-11-10T09:24:19.985Z,9.30
2018-11-10T09:26:52.132Z,9.40
2018-11-10T09:29:24.961Z,9.40
2018-11-10T09:31:57.821Z,9.40
2018-11-10T09:34:29.590Z,9.30
2018-11-10T09:37:01.588Z,9.40
2018-11-10T09:39:34.254Z,9.30
2018-11-10T09:42:06.589Z,9.40
2018-11-10T09:44:38.558Z,9.40
2018-11-10T09:47:10.598Z,9.40
2018-11-10T09:49:42.820Z,9.40
2018-11-10T09:52:14.965Z,9.40
2018-11-10T09:54:46.925Z,9.40
2018-11-10T09:57:18.879Z,9.40
2018-11-10T09:59:50.900Z,9.40
2018-11-10T10:02:23.517Z,9.40
2018-11-10T10:04:55.385Z,9.40
2018-11-10T10:07:27.383Z,9.40
2018-11-10T10:10:01.269Z,9.40
2018-11-10T10:12:34.084Z,9.40
2018-11-10T10:15:06.915Z,9.40
2018-11-10T10:17:39.214Z,9.40
2018-11-10T10:20:14.062Z,9.40
2018-11-10T10:22:46.996Z,9.40
2018-11-10T10:25:20.034Z,9.50
2018-11-10T10:27:52.483Z,9.50
2018-11-10T10:30:25.891Z,9.50
2018-11-10T10:32:58.488Z,9.50
2018-11-10T10:35:32.701Z,9.50
2018-11-10T10:38:05.593Z,9.50
2018-11-10T10:40:37.842Z,9.60
2018-11-10T10:43:11.076Z,9.50
2018-11-10T10:45:44.481Z,9.50
2018-11-10T10:48:16.649Z,9.60
2018-11-10T10:50:48.515Z,9.50
2018-11-10T10:53:20.551Z,9.50
2018-11-10T10:55:52.700Z,9.60
2018-11-10T10:58:25.176Z,9.60
2018-11-10T11:01:02.155Z,9.60
2018-11-10T11:03:39.257Z,9.60
2018-11-10T11:06:12.560Z,9.60
2018-11-10T11:08:44.624Z,9.60
2018-11-10T11:11:16.536Z,9.60
2018-11-10T11:13:48.486Z,9.60
2018-11-10T11:16:20.756Z,9.60
2018-11-10T11:18:52.853Z,9.60
2018-11-10T11:21:25.359Z,9.60
2018-11-10T11:23:57.573Z,9.70
2018-11-10T11:26:29.609Z,9.70
2018-11-10T11:29:02.001Z,9.70
2018-11-10T11:31:34.137Z,9.70
2018-11-10T11:34:06.402Z,9.70
2018-11-10T11:36:38.420Z,9.80
2018-11-10T11:39:12.173Z,9.80
2018-11-10T11:41:43.996Z,9.80
2018-11-10T11:44:16.184Z,9.90
2018-11-10T11:46:48.085Z,9.90
2018-11-10T11:49:20.306Z,9.80
2018-11-10T11:51:53.168Z,9.90
2018-11-10T11:54:26.032Z,9.90
2018-11-10T11:56:58.423Z,9.90
2018-11-10T11:59:30.733Z,9.90
2018-11-10T12:02:02.978Z,9.90
2018-11-10T12:04:35.127Z,9.90
2018-11-10T12:07:07.273Z,9.90
2018-11-10T12:09:40.601Z,9.90
2018-11-10T12:12:13.230Z,9.90
2018-11-10T12:14:45.194Z,9.90
2018-11-10T12:17:19.298Z,9.90
2018-11-10T12:19:52.260Z,9.90
2018-11-10T12:22:24.367Z,9.90
2018-11-10T12:24:56.316Z,9.90
2018-11-10T12:27:28.537Z,9.90
2018-11-10T12:30:00.725Z,9.90
2018-11-10T12:32:32.760Z,10.00
2018-11-10T12:35:05.149Z,10.00
2018-11-10T12:37:37.309Z,10.00
2018-11-10T12:40:10.745Z,9.90
2018-11-10T12:42:43.268Z,10.00
2018-11-10T12:45:15.412Z,10.00
2018-11-10T12:47:47.267Z,10.00
2018-11-10T12:50:20.396Z,10.00
2018-11-10T12:52:54.382Z,10.00
2018-11-10T12:55:27.735Z,10.00
2018-11-10T12:58:00.507Z,10.00
2018-11-10T13:00:32.757Z,10.00
2018-11-10T13:03:05.633Z,10.00
2018-11-10T13:05:37.752Z,10.10
2018-11-10T13:08:09.849Z,10.10
2018-11-10T13:10:42.092Z,10.10
2018-11-10T13:13:14.059Z,10.00
2018-11-10T13:15:46.177Z,10.00
2018-11-10T13:18:18.523Z,10.00
2018-11-10T13:20:51.437Z,10.00
2018-11-10T13:23:23.799Z,10.00
2018-11-10T13:25:55.907Z,10.00
2018-11-10T13:28:28.148Z,10.00
2018-11-10T13:31:00.435Z,10.00
2018-11-10T13:33:32.592Z,10.00
2018-11-10T13:36:04.954Z,10.00
2018-11-10T13:38:36.907Z,10.10
2018-11-10T13:41:15.490Z,10.00
2018-11-10T13:43:55.491Z,10.00
2018-11-10T13:46:28.280Z,10.10
2018-11-10T13:49:01.115Z,10.10
2018-11-10T13:51:33.480Z,10.10
2018-11-10T13:54:05.512Z,10.10
2018-11-10T13:56:37.611Z,10.10
2018-11-10T13:59:09.854Z,10.10
2018-11-10T14:01:42.160Z,10.10
2018-11-10T14:04:14.647Z,10.10
2018-11-10T14:06:46.613Z,10.10
2018-11-10T14:09:18.909Z,10.10
2018-11-10T14:11:51.180Z,10.10
2018-11-10T14:14:23.488Z,10.10
2018-11-10T14:16:55.731Z,10.20
2018-11-10T14:19:27.840Z,10.20
2018-11-10T14:21:59.858Z,10.10
2018-11-10T14:24:31.838Z,10.10
2018-11-10T14:27:03.916Z,10.20
2018-11-10T14:29:36.028Z,10.20
2018-11-10T14:32:08.104Z,10.40
2018-11-10T14:34:40.257Z,10.60
2018-11-10T14:37:12.400Z,10.70
2018-11-10T14:39:44.474Z,10.70
2018-11-10T14:42:17.341Z,10.80
2018-11-10T14:44:49.292Z,10.90
2018-11-10T14:47:21.431Z,10.90
2018-11-10T14:49:53.506Z,10.90
2018-11-10T14:52:25.495Z,11.00
2018-11-10T14:54:57.791Z,11.00
2018-11-10T14:57:29.852Z,11.00
2018-11-10T15:00:01.997Z,11.10
2018-11-10T15:02:34.381Z,11.10
2018-11-10T15:05:07.310Z,11.10
2018-11-10T15:07:40.756Z,11.10
2018-11-10T15:10:15.867Z,11.10
2018-11-10T15:12:48.072Z,11.10
2018-11-10T15:15:20.694Z,11.10
2018-11-10T15:17:52.985Z,11.10
2018-11-10T15:20:25.293Z,11.10
2018-11-10T15:22:57.579Z,11.20
2018-11-10T15:25:30.155Z,11.20
2018-11-10T15:28:03.323Z,11.20
2018-11-10T15:30:36.223Z,11.20
2018-11-10T15:33:08.331Z,11.20
2018-11-10T15:35:41.286Z,11.20
2018-11-10T15:38:13.960Z,11.20
2018-11-10T15:40:46.385Z,11.20
2018-11-10T15:43:18.418Z,11.20
2018-11-10T15:45:50.293Z,11.20
2018-11-10T15:48:22.722Z,11.20
2018-11-10T15:50:54.708Z,11.20
2018-11-10T15:53:26.850Z,11.20
2018-11-10T15:55:58.810Z,11.20
2018-11-10T15:58:30.793Z,11.20
2018-11-10T16:01:02.922Z,11.20
2018-11-10T16:03:34.736Z,11.20
2018-11-10T16:06:06.976Z,11.20
2018-11-10T16:08:39.229Z,11.20
2018-11-10T16:11:11.825Z,11.20
2018-11-10T16:13:43.869Z,11.20
2018-11-10T16:16:16.032Z,11.20
2018-11-10T16:18:48.321Z,11.20
2018-11-10T16:21:20.343Z,11.20
2018-11-10T16:23:52.799Z,11.20
2018-11-10T16:26:25.036Z,11.20
2018-11-10T16:28:57.294Z,11.20
2018-11-10T16:31:29.621Z,11.20
2018-11-10T16:34:01.819Z,11.20
2018-11-10T16:36:33.795Z,11.20
2018-11-10T16:39:08.934Z,11.20
2018-11-10T16:41:40.994Z,11.30
2018-11-10T16:44:13.334Z,11.20
2018-11-10T16:46:45.416Z,11.20
2018-11-10T16:49:17.479Z,11.20
2018-11-10T16:51:49.573Z,11.20
2018-11-10T16:54:21.679Z,11.20
2018-11-10T16:56:54.029Z,11.20
2018-11-10T16:59:26.224Z,11.20
2018-11-10T17:01:58.519Z,11.20
2018-11-10T17:04:30.775Z,11.20
2018-11-10T17:07:02.807Z,11.20
2018-11-10T17:09:34.850Z,11.20
2018-11-10T17:12:07.021Z,11.20
2018-11-10T17:14:39.275Z,11.20
2018-11-10T17:17:11.574Z,11.20
2018-11-10T17:19:44.018Z,11.20
2018-11-10T17:22:16.530Z,11.20
2018-11-10T17:24:48.449Z,11.20
2018-11-10T17:27:20.840Z,11.20
2018-11-10T17:29:53.602Z,11.20
2018-11-10T17:32:25.912Z,11.20
2018-11-10T17:34:58.021Z,11.20
2018-11-10T17:37:31.112Z,11.20
2018-11-10T17:40:04.181Z,11.20
2018-11-10T17:42:36.269Z,11.20
2018-11-10T17:45:09.792Z,11.20
2018-11-10T17:47:42.148Z,11.20
2018-11-10T17:50:15.223Z,11.20
2018-11-10T17:52:47.699Z,11.20
2018-11-10T17:55:19.908Z,11.20
2018-11-10T17:57:52.929Z,11.20
2018-11-10T18:00:25.210Z,11.20
2018-11-10T18:02:57.524Z,11.20
2018-11-10T18:05:29.804Z,11.20
2018-11-10T18:08:02.104Z,11.20
2018-11-10T18:10:34.289Z,11.20
2018-11-10T18:13:06.674Z,11.20
2018-11-10T18:15:38.977Z,11.20
2018-11-10T18:18:11.144Z,11.20
2018-11-10T18:20:43.420Z,11.10
2018-11-10T18:23:16.261Z,11.10
2018-11-10T18:25:48.947Z,11.20
2018-11-10T18:28:21.704Z,11.10
2018-11-10T18:30:55.025Z,11.20
2018-11-10T18:33:27.147Z,11.10
2018-11-10T18:35:59.873Z,11.10
2018-11-10T18:38:32.144Z,11.20
2018-11-10T18:41:04.392Z,11.20
2018-11-10T18:43:36.481Z,11.10
2018-11-10T18:46:08.921Z,11.10
2018-11-10T18:48:41.484Z,11.10
2018-11-10T18:51:13.725Z,11.10
2018-11-10T18:53:46.336Z,11.20
2018-11-10T18:56:18.786Z,11.10
2018-11-10T18:58:51.110Z,11.10
2018-11-10T19:01:24.228Z,11.10
2018-11-10T19:03:57.446Z,11.10
2018-11-10T19:06:29.939Z,11.10
2018-11-10T19:09:02.042Z,11.10
2018-11-10T19:11:35.330Z,11.10
2018-11-10T19:14:07.898Z,11.10
2018-11-10T19:16:41.732Z,11.10
2018-11-10T19:19:14.070Z,11.10
2018-11-10T19:21:46.281Z,11.10
2018-11-10T19:24:20.263Z,11.10
2018-11-10T19:26:53.456Z,11.10
2018-11-10T19:29:25.726Z,11.10
2018-11-10T19:31:59.620Z,11.10
2018-11-10T19:34:31.789Z,11.10
2018-11-10T19:37:07.328Z,11.10
2018-11-10T19:39:39.972Z,11.10
2018-11-10T19:42:12.198Z,11.10
2018-11-10T19:44:45.143Z,11.10
2018-11-10T19:47:17.433Z,11.10
2018-11-10T19:49:49.688Z,11.10
2018-11-10T19:52:21.786Z,11.10
2018-11-10T19:54:54.282Z,11.10
2018-11-10T19:57:26.608Z,11.10
2018-11-10T19:59:58.745Z,11.10
2018-11-10T20:02:32.453Z,11.10
2018-11-10T20:05:04.558Z,11.10
2018-11-10T20:07:37.003Z,11.10
2018-11-10T20:10:10.951Z,11.10
2018-11-10T20:12:44.241Z,11.10
2018-11-10T20:15:17.374Z,11.10
2018-11-10T20:17:49.778Z,11.10
2018-11-10T20:20:22.833Z,11.10
2018-11-10T20:22:55.088Z,11.10
2018-11-10T20:25:27.789Z,11.10
2018-11-10T20:27:59.955Z,11.00
2018-11-10T20:30:32.438Z,11.00
2018-11-10T20:33:05.192Z,11.00
2018-11-10T20:35:37.618Z,11.10
2018-11-10T20:38:09.720Z,11.00
2018-11-10T20:40:42.089Z,11.00
2018-11-10T20:43:14.223Z,11.00
2018-11-10T20:45:46.422Z,11.00
2018-11-10T20:48:18.527Z,11.00
2018-11-10T20:50:50.673Z,11.00
2018-11-10T20:53:23.076Z,11.00
2018-11-10T20:55:55.452Z,11.00
2018-11-10T20:58:27.577Z,11.00
2018-11-10T21:01:00.025Z,11.00
2018-11-10T21:03:33.042Z,11.00
2018-11-10T21:06:05.544Z,11.00
2018-11-10T21:08:37.676Z,11.00
2018-11-10T21:11:10.727Z,11.00
2018-11-10T21:13:43.041Z,11.00
2018-11-10T21:16:15.216Z,11.00
2018-11-10T21:18:47.590Z,11.00
2018-11-10T21:21:19.861Z,11.00
2018-11-10T21:23:52.499Z,11.00
2018-11-10T21:26:24.706Z,11.00
2018-11-10T21:28:57.172Z,11.00
2018-11-10T21:31:30.313Z,11.00
2018-11-10T21:34:02.489Z,11.00
2018-11-10T21:36:35.341Z,11.00
2018-11-10T21:39:10.891Z,11.00
2018-11-10T21:41:43.229Z,11.00
2018-11-10T21:44:15.432Z,11.00
2018-11-10T21:46:47.891Z,11.00
2018-11-10T21:49:20.375Z,11.00
2018-11-10T21:51:58.087Z,11.00
2018-11-10T21:54:30.322Z,11.00
2018-11-10T21:57:03.266Z,11.00
2018-11-10T21:59:35.464Z,11.00
2018-11-10T22:02:07.730Z,11.00
2018-11-10T22:04:40.029Z,11.00
2018-11-10T22:07:12.419Z,11.00
2018-11-10T22:09:44.772Z,11.00
2018-11-10T22:12:17.226Z,11.00
2018-11-10T22:14:49.981Z,10.90
2018-11-10T22:17:22.173Z,10.90
2018-11-10T22:19:54.316Z,10.90
2018-11-10T22:22:27.061Z,10.90
2018-11-10T22:24:59.678Z,10.90
2018-11-10T22:27:31.871Z,10.90
2018-11-10T22:30:04.386Z,10.90
2018-11-10T22:32:36.552Z,10.90
2018-11-10T22:35:09.133Z,10.90
2018-11-10T22:37:41.113Z,10.90
2018-11-10T22:40:14.839Z,10.90
2018-11-10T22:42:47.211Z,10.90
2018-11-10T22:45:20.540Z,10.90
2018-11-10T22:47:53.282Z,10.90
2018-11-10T22:50:26.167Z,10.90
2018-11-10T22:52:58.464Z,10.90
2018-11-10T22:55:30.871Z,10.90
2018-11-10T22:58:02.953Z,10.90
2018-11-10T23:00:36.041Z,10.90
2018-11-10T23:03:08.656Z,10.90
2018-11-10T23:05:40.800Z,10.90
2018-11-10T23:08:13.024Z,10.90
2018-11-10T23:10:45.007Z,10.90
2018-11-10T23:13:17.258Z,10.90
2018-11-10T23:15:49.530Z,10.80
2018-11-10T23:18:21.596Z,10.90
2018-11-10T23:20:53.945Z,10.80
2018-11-10T23:23:26.809Z,10.80
2018-11-10T23:25:59.008Z,10.80
2018-11-10T23:28:30.987Z,10.80
2018-11-10T23:31:03.267Z,10.80
2018-11-10T23:33:36.185Z,10.80
2018-11-10T23:36:08.724Z,10.80
2018-11-10T23:38:40.602Z,10.80
2018-11-10T23:41:13.437Z,10.90
2018-11-10T23:43:45.617Z,10.80
2018-11-10T23:46:17.884Z,10.90
2018-11-10T23:48:49.949Z,10.80
2018-11-10T23:51:22.158Z,10.80
2018-11-10T23:53:54.122Z,10.80
2018-11-10T23:56:26.493Z,10.80
2018-11-10T23:58:58.859Z,10.80
